createdAt,value
2018-11-28T00:00:28.484Z,41.07
2018-11-28T00:02:57.790Z,37.53
2018-11-28T00:05:26.677Z,40.70
2018-11-28T00:07:55.473Z,41.43
2018-11-28T00:10:24.020Z,44.10
2018-11-28T00:12:52.491Z,36.93
2018-11-28T00:15:21.038Z,41.53
2018-11-28T00:17:49.493Z,37.60
2018-11-28T00:20:19.516Z,42.80
2018-11-28T00:22:48.144Z,39.87
2018-11-28T00:25:17.532Z,38.53
2018-11-28T00:27:46.052Z,43.20
2018-11-28T00:30:23.916Z,40.77
2018-11-28T00:32:52.378Z,40.00
2018-11-28T00:35:22.381Z,47.53
2018-11-28T00:37:50.891Z,43.60
2018-11-28T00:40:20.913Z,45.47
2018-11-28T00:42:49.477Z,40.60
2018-11-28T00:45:21.868Z,40.87
2018-11-28T00:47:50.309Z,43.40
2018-11-28T00:50:20.656Z,42.90
2018-11-28T00:52:49.471Z,41.47
2018-11-28T00:55:18.556Z,40.07
2018-11-28T00:57:47.068Z,42.70
2018-11-28T01:00:18.953Z,41.40
2018-11-28T01:02:47.781Z,43.20
2018-11-28T01:05:16.231Z,39.40
2018-11-28T01:07:45.320Z,45.30
2018-11-28T01:10:16.559Z,41.73
2018-11-28T01:12:45.020Z,42.13
2018-11-28T01:15:14.367Z,40.97
2018-11-28T01:17:42.867Z,42.27
2018-11-28T01:20:12.341Z,42.70
2018-11-28T01:22:40.824Z,41.30
2018-11-28T01:25:13.446Z,45.03
2018-11-28T01:27:42.244Z,43.90
2018-11-28T01:30:15.859Z,42.00
2018-11-28T01:32:44.981Z,44.73
2018-11-28T01:35:15.484Z,46.50
2018-11-28T01:37:44.176Z,43.50
2018-11-28T01:40:14.373Z,45.53
2018-11-28T01:42:43.147Z,42.10
2018-11-28T01:45:12.853Z,47.10
2018-11-28T01:47:41.464Z,46.17
2018-11-28T01:50:12.266Z,41.07
2018-11-28T01:52:41.069Z,43.20
2018-11-28T01:55:10.698Z,41.27
2018-11-28T01:57:39.171Z,45.13
2018-11-28T02:00:10.772Z,43.33
2018-11-28T02:02:39.231Z,44.20
2018-11-28T02:05:08.515Z,43.57
2018-11-28T02:07:37.587Z,43.77
2018-11-28T02:10:09.357Z,41.90
2018-11-28T02:12:37.823Z,40.63
2018-11-28T02:15:09.239Z,44.30
2018-11-28T02:17:37.695Z,42.63
2018-11-28T02:20:08.703Z,45.70
2018-11-28T02:22:37.168Z,46.47
2018-11-28T02:25:06.367Z,41.97
2018-11-28T02:27:34.836Z,43.07
2018-11-28T02:30:03.960Z,38.70
2018-11-28T02:32:32.403Z,46.03
2018-11-28T02:35:00.848Z,40.87
2018-11-28T02:37:29.285Z,44.70
2018-11-28T02:39:57.740Z,42.63
2018-11-28T02:42:26.185Z,42.73
2018-11-28T02:44:54.659Z,38.27
2018-11-28T02:47:23.090Z,36.17
2018-11-28T02:49:51.556Z,40.20
2018-11-28T02:52:20.015Z,45.67
2018-11-28T02:54:48.518Z,42.73
2018-11-28T02:57:16.975Z,42.20
2018-11-28T02:59:45.429Z,39.10
2018-11-28T03:02:13.867Z,39.13
2018-11-28T03:04:42.325Z,43.27
2018-11-28T03:07:11.268Z,39.97
2018-11-28T03:09:39.811Z,41.47
2018-11-28T03:12:08.276Z,44.97
2018-11-28T03:14:36.743Z,43.27
2018-11-28T03:17:05.843Z,41.77
2018-11-28T03:19:34.298Z,41.17
2018-11-28T03:22:02.823Z,42.03
2018-11-28T03:24:31.608Z,41.67
2018-11-28T03:27:00.130Z,43.40
2018-11-28T03:29:29.216Z,41.47
2018-11-28T03:31:57.697Z,40.67
2018-11-28T03:34:26.166Z,39.43
2018-11-28T03:36:54.789Z,38.30
2018-11-28T03:39:23.236Z,38.83
2018-11-28T03:41:52.056Z,44.17
2018-11-28T03:44:20.853Z,37.80
2018-11-28T03:46:49.328Z,42.67
2018-11-28T03:49:17.772Z,37.40
2018-11-28T03:51:46.224Z,42.03
2018-11-28T03:54:14.708Z,38.10
2018-11-28T03:56:43.216Z,40.40
2018-11-28T03:59:11.653Z,41.43
2018-11-28T04:01:40.121Z,45.30
2018-11-28T04:04:08.557Z,39.33
2018-11-28T04:06:37.017Z,35.60
2018-11-28T04:09:07.963Z,41.73
2018-11-28T04:11:36.429Z,40.90
2018-11-28T04:14:04.884Z,42.13
2018-11-28T04:16:33.336Z,35.43
2018-11-28T04:19:04.600Z,39.33
2018-11-28T04:21:33.464Z,41.43
2018-11-28T04:24:01.885Z,42.80
2018-11-28T04:26:30.349Z,40.93
2018-11-28T04:28:58.777Z,39.33
2018-11-28T04:31:27.232Z,40.57
2018-11-28T04:33:55.672Z,37.33
2018-11-28T04:36:24.186Z,38.40
2018-11-28T04:38:52.657Z,40.03
2018-11-28T04:41:21.143Z,37.93
2018-11-28T04:43:49.611Z,41.27
2018-11-28T04:46:18.119Z,38.17
2018-11-28T04:48:46.555Z,39.73
2018-11-28T04:51:15.000Z,39.00
2018-11-28T04:53:43.442Z,35.17
2018-11-28T04:56:11.893Z,37.40
2018-11-28T04:58:40.380Z,43.50
2018-11-28T05:01:08.842Z,37.57
2018-11-28T05:03:37.268Z,37.77
2018-11-28T05:06:06.100Z,37.97
2018-11-28T05:08:34.532Z,36.03
2018-11-28T05:11:02.988Z,37.13
2018-11-28T05:13:31.489Z,34.83
2018-11-28T05:16:00.112Z,37.57
2018-11-28T05:18:28.559Z,39.80
2018-11-28T05:20:57.024Z,40.50
2018-11-28T05:23:25.504Z,40.73
2018-11-28T05:25:53.955Z,37.97
2018-11-28T05:28:22.423Z,34.97
2018-11-28T05:30:50.904Z,36.37
2018-11-28T05:33:19.404Z,34.73
2018-11-28T05:35:47.900Z,41.20
2018-11-28T05:38:16.767Z,39.67
2018-11-28T05:40:45.654Z,41.50
2018-11-28T05:43:14.140Z,36.27
2018-11-28T05:45:42.616Z,38.00
2018-11-28T05:48:11.468Z,41.97
2018-11-28T05:50:39.996Z,40.57
2018-11-28T05:53:08.839Z,37.83
2018-11-28T05:55:38.724Z,37.10
2018-11-28T05:58:07.230Z,36.03
2018-11-28T06:00:39.902Z,37.80
2018-11-28T06:03:09.480Z,39.20
2018-11-28T06:05:38.418Z,41.93
2018-11-28T06:08:07.967Z,39.43
2018-11-28T06:10:37.107Z,36.43
2018-11-28T06:13:05.632Z,38.97
2018-11-28T06:15:34.076Z,40.67
2018-11-28T06:18:02.537Z,37.33
2018-11-28T06:20:30.967Z,36.20
2018-11-28T06:22:59.434Z,37.10
2018-11-28T06:25:27.875Z,38.63
2018-11-28T06:27:56.351Z,34.03
2018-11-28T06:30:24.824Z,37.10
2018-11-28T06:32:53.283Z,36.83
2018-11-28T06:35:21.735Z,38.20
2018-11-28T06:37:50.189Z,37.17
2018-11-28T06:40:23.795Z,37.17
2018-11-28T06:42:48.447Z,35.60
2018-11-28T06:45:19.063Z,37.80
2018-11-28T06:47:47.517Z,39.20
2018-11-28T06:50:18.576Z,33.97
2018-11-28T06:52:49.163Z,42.10
2018-11-28T06:55:18.614Z,40.90
2018-11-28T06:57:47.474Z,36.00
2018-11-28T07:00:20.956Z,39.43
2018-11-28T07:02:52.189Z,40.20
2018-11-28T07:05:23.100Z,37.20
2018-11-28T07:07:52.011Z,44.10
2018-11-28T07:10:21.320Z,36.57
2018-11-28T07:12:50.169Z,38.00
2018-11-28T07:15:19.800Z,36.80
2018-11-28T07:17:48.289Z,34.37
2018-11-28T07:20:17.100Z,39.80
2018-11-28T07:22:46.094Z,37.60
2018-11-28T07:25:16.344Z,39.83
2018-11-28T07:27:45.632Z,37.23
2018-11-28T07:30:22.770Z,39.97
2018-11-28T07:32:54.144Z,36.37
2018-11-28T07:35:22.955Z,39.53
2018-11-28T07:37:51.434Z,46.47
2018-11-28T07:40:22.196Z,37.40
2018-11-28T07:43:10.080Z,36.87
2018-11-28T07:45:41.036Z,42.20
2018-11-28T07:48:09.746Z,36.33
2018-11-28T07:50:38.233Z,44.27
2018-11-28T07:53:07.141Z,40.80
2018-11-28T07:55:35.576Z,35.30
2018-11-28T07:58:04.024Z,39.37
2018-11-28T08:00:32.453Z,35.53
2018-11-28T08:03:00.910Z,35.70
2018-11-28T08:05:29.366Z,35.83
2018-11-28T08:07:57.833Z,37.37
2018-11-28T08:10:26.888Z,37.07
2018-11-28T08:12:57.300Z,39.50
2018-11-28T08:15:26.070Z,39.23
2018-11-28T08:17:54.537Z,39.63
2018-11-28T08:20:22.990Z,35.57
2018-11-28T08:22:51.505Z,39.57
2018-11-28T08:25:19.988Z,41.23
2018-11-28T08:27:50.092Z,35.37
2018-11-28T08:30:22.839Z,40.57
2018-11-28T08:32:51.393Z,38.50
2018-11-28T08:35:19.932Z,38.47
2018-11-28T08:37:48.516Z,37.80
2018-11-28T08:40:23.085Z,35.27
2018-11-28T08:42:51.593Z,34.60
2018-11-28T08:45:21.110Z,35.00
2018-11-28T08:47:50.708Z,33.90
2018-11-28T08:50:20.647Z,33.07
2018-11-28T08:52:49.164Z,37.07
2018-11-28T08:55:17.978Z,36.50
2018-11-28T08:57:46.772Z,40.37
2018-11-28T09:00:22.728Z,32.60
2018-11-28T09:02:53.417Z,38.90
2018-11-28T09:05:21.856Z,39.07
2018-11-28T09:07:50.701Z,33.13
2018-11-28T09:10:19.693Z,38.27
2018-11-28T09:12:48.821Z,38.87
2018-11-28T09:15:19.577Z,33.73
2018-11-28T09:17:48.356Z,34.57
2018-11-28T09:20:16.851Z,31.77
2018-11-28T09:22:45.300Z,32.53
2018-11-28T09:25:16.216Z,40.33
2018-11-28T09:27:45.652Z,35.90
2018-11-28T09:30:15.889Z,36.47
2018-11-28T09:32:44.520Z,35.17
2018-11-28T09:35:14.075Z,30.70
2018-11-28T09:37:45.546Z,30.87
2018-11-28T09:40:17.291Z,33.13
2018-11-28T09:42:47.152Z,33.20
2018-11-28T09:45:16.453Z,32.13
2018-11-28T09:47:44.951Z,27.47
2018-11-28T09:50:15.499Z,29.20
2018-11-28T09:52:44.292Z,27.23
2018-11-28T09:55:14.680Z,31.07
2018-11-28T09:57:43.620Z,29.23
2018-11-28T10:00:15.751Z,28.10
2018-11-28T10:02:44.254Z,26.10
2018-11-28T10:05:14.279Z,31.80
2018-11-28T10:07:42.805Z,28.13
2018-11-28T10:10:12.418Z,30.87
2018-11-28T10:12:41.248Z,26.03
2018-11-28T10:15:18.968Z,27.17
2018-11-28T10:17:48.169Z,26.67
2018-11-28T10:20:17.240Z,28.43
2018-11-28T10:22:46.949Z,28.33
2018-11-28T10:25:19.959Z,28.27
2018-11-28T10:27:50.660Z,25.57
2018-11-28T10:30:24.580Z,25.03
2018-11-28T10:32:54.975Z,26.30
2018-11-28T10:35:23.448Z,28.00
2018-11-28T10:37:51.892Z,26.23
2018-11-28T10:40:22.061Z,26.37
2018-11-28T10:42:51.891Z,23.77
2018-11-28T10:45:21.583Z,25.40
2018-11-28T10:47:50.020Z,28.37
2018-11-28T10:52:53.132Z,25.53
2018-11-28T10:55:23.237Z,23.00
2018-11-28T10:57:52.324Z,30.67
2018-11-28T11:00:27.120Z,22.53
2018-11-28T11:03:01.685Z,23.57
2018-11-28T11:05:35.565Z,24.00
2018-11-28T11:08:09.249Z,24.50
2018-11-28T11:10:43.573Z,24.33
2018-11-28T11:13:17.772Z,23.83
2018-11-28T11:15:51.617Z,24.67
2018-11-28T11:18:20.164Z,23.73
2018-11-28T11:20:48.636Z,22.97
2018-11-28T11:23:18.356Z,26.07
2018-11-28T11:25:46.919Z,25.60
2018-11-28T11:28:15.384Z,24.27
2018-11-28T11:30:43.880Z,22.53
2018-11-28T11:33:13.016Z,20.37
2018-11-28T11:35:41.875Z,22.33
2018-11-28T11:38:10.360Z,25.53
2018-11-28T11:40:38.880Z,24.80
2018-11-28T11:43:07.539Z,22.17
2018-11-28T11:45:36.025Z,23.40
2018-11-28T11:48:04.492Z,23.73
2018-11-28T11:50:33.027Z,24.27
2018-11-28T11:53:01.481Z,21.63
2018-11-28T11:55:30.296Z,21.67
2018-11-28T11:57:58.744Z,21.70
2018-11-28T12:00:27.784Z,20.30
2018-11-28T12:03:04.062Z,20.43
2018-11-28T12:05:32.127Z,25.47
2018-11-28T12:08:00.606Z,18.87
2018-11-28T12:10:29.063Z,20.47
2018-11-28T12:12:57.538Z,21.03
2018-11-28T12:15:26.357Z,21.70
2018-11-28T12:17:54.837Z,19.43
2018-11-28T12:20:27.052Z,21.03
2018-11-28T12:22:55.526Z,22.03
2018-11-28T12:25:23.981Z,21.47
2018-11-28T12:27:52.468Z,20.70
2018-11-28T12:30:21.264Z,19.30
2018-11-28T12:32:50.088Z,21.73
2018-11-28T12:35:19.454Z,21.53
2018-11-28T12:37:47.924Z,20.33
2018-11-28T12:40:18.300Z,20.33
2018-11-28T12:42:50.896Z,18.60
2018-11-28T12:45:20.283Z,20.77
2018-11-28T12:47:49.106Z,18.80
2018-11-28T12:50:20.769Z,19.97
2018-11-28T12:52:50.127Z,20.90
2018-11-28T12:55:19.072Z,19.33
2018-11-28T12:57:47.946Z,19.63
2018-11-28T13:00:18.718Z,20.73
2018-11-28T13:02:47.585Z,18.40
2018-11-28T13:05:19.953Z,19.23
2018-11-28T13:07:48.804Z,18.67
2018-11-28T13:10:21.211Z,18.73
2018-11-28T13:12:50.459Z,18.90
2018-11-28T13:15:19.963Z,16.97
2018-11-28T13:17:48.435Z,19.03
2018-11-28T13:20:17.776Z,22.53
2018-11-28T13:22:47.109Z,18.10
2018-11-28T13:25:20.188Z,18.63
2018-11-28T13:27:48.631Z,17.97
2018-11-28T13:30:19.697Z,18.57
2018-11-28T13:32:48.708Z,18.77
2018-11-28T13:35:19.093Z,18.53
2018-11-28T13:37:48.357Z,19.50
2018-11-28T13:40:17.792Z,18.27
2018-11-28T13:42:46.308Z,19.47
2018-11-28T13:45:30.640Z,17.03
2018-11-28T13:47:59.138Z,18.43
2018-11-28T13:50:27.653Z,20.67
2018-11-28T13:52:56.659Z,17.33
2018-11-28T13:55:38.198Z,18.57
2018-11-28T13:58:01.840Z,17.90
2018-11-28T14:00:30.648Z,20.90
2018-11-28T14:02:59.146Z,18.10
2018-11-28T14:05:27.632Z,16.27
2018-11-28T14:07:56.107Z,15.23
2018-11-28T14:10:24.560Z,19.67
2018-11-28T14:12:53.012Z,17.53
2018-11-28T14:15:22.568Z,19.17
2018-11-28T14:17:55.281Z,15.27
2018-11-28T14:20:24.060Z,17.50
2018-11-28T14:22:52.536Z,16.80
2018-11-28T14:25:21.021Z,17.77
2018-11-28T14:27:50.076Z,20.90
2018-11-28T14:30:22.208Z,19.53
2018-11-28T14:32:51.203Z,15.37
2018-11-28T14:35:20.163Z,17.10
2018-11-28T14:37:48.656Z,20.03
2018-11-28T14:40:19.016Z,17.63
2018-11-28T14:42:53.820Z,18.37
2018-11-28T14:45:22.648Z,17.47
2018-11-28T14:47:51.622Z,18.50
2018-11-28T14:50:22.969Z,18.97
2018-11-28T14:52:51.901Z,17.97
2018-11-28T14:55:22.312Z,18.77
2018-11-28T14:57:50.815Z,19.40
2018-11-28T15:00:20.363Z,20.83
2018-11-28T15:02:50.123Z,17.60
2018-11-28T15:05:28.832Z,19.63
2018-11-28T15:07:59.920Z,17.93
2018-11-28T15:10:34.950Z,18.40
2018-11-28T15:13:03.417Z,17.80
2018-11-28T15:15:32.209Z,17.33
2018-11-28T15:18:00.692Z,17.60
2018-11-28T15:20:29.128Z,15.77
2018-11-28T15:22:57.585Z,16.70
2018-11-28T15:25:26.029Z,17.07
2018-11-28T15:27:54.481Z,15.63
2018-11-28T15:30:22.912Z,16.03
2018-11-28T15:32:51.376Z,15.30
2018-11-28T15:35:19.823Z,24.53
2018-11-28T15:37:48.281Z,15.47
2018-11-28T15:40:16.721Z,16.30
2018-11-28T15:42:45.151Z,19.13
2018-11-28T15:45:13.615Z,15.37
2018-11-28T15:47:42.047Z,28.83
2018-11-28T15:50:10.986Z,17.67
2018-11-28T15:52:39.532Z,14.50
2018-11-28T15:55:09.944Z,17.57
2018-11-28T15:57:38.480Z,16.73
2018-11-28T16:00:10.244Z,16.00
2018-11-28T16:02:38.685Z,17.07
2018-11-28T16:05:08.103Z,18.17
2018-11-28T16:07:36.684Z,16.57
2018-11-28T16:10:12.229Z,16.73
2018-11-28T16:12:40.679Z,15.87
2018-11-28T16:15:11.344Z,15.13
2018-11-28T16:17:39.810Z,17.37
2018-11-28T16:20:08.688Z,17.47
2018-11-28T16:22:38.263Z,17.93
2018-11-28T16:25:09.007Z,17.20
2018-11-28T16:27:41.601Z,16.83
2018-11-28T16:30:11.298Z,17.33
2018-11-28T16:32:39.817Z,20.50
2018-11-28T16:35:09.908Z,18.53
2018-11-28T16:37:38.388Z,17.70
2018-11-28T16:40:13.388Z,17.67
2018-11-28T16:42:42.528Z,19.73
2018-11-28T16:45:13.372Z,21.30
2018-11-28T16:47:42.167Z,16.73
2018-11-28T16:50:11.719Z,18.40
2018-11-28T16:52:40.484Z,16.77
2018-11-28T16:55:10.136Z,17.83
2018-11-28T16:57:38.565Z,19.23
2018-11-28T17:00:26.042Z,18.13
2018-11-28T17:02:55.727Z,21.37
2018-11-28T17:05:24.316Z,15.50
2018-11-28T17:07:53.211Z,17.97
2018-11-28T17:10:28.769Z,18.63
2018-11-28T17:12:57.856Z,16.77
2018-11-28T17:15:27.235Z,17.77
2018-11-28T17:17:56.872Z,16.00
2018-11-28T17:20:26.550Z,16.57
2018-11-28T17:22:57.200Z,17.77
2018-11-28T17:25:26.878Z,18.40
2018-11-28T17:27:55.332Z,17.63
2018-11-28T17:30:25.107Z,18.90
2018-11-28T17:32:53.577Z,15.70
2018-11-28T17:35:22.416Z,19.50
2018-11-28T17:37:51.054Z,16.30
2018-11-28T17:40:20.696Z,19.43
2018-11-28T17:42:51.403Z,21.50
2018-11-28T17:45:20.084Z,20.17
2018-11-28T17:47:48.524Z,18.90
2018-11-28T17:50:20.630Z,20.57
2018-11-28T17:52:54.754Z,17.97
2018-11-28T17:55:23.344Z,21.27
2018-11-28T17:57:52.017Z,21.80
2018-11-28T18:00:20.638Z,22.07
2018-11-28T18:02:49.123Z,21.53
2018-11-28T18:05:17.639Z,24.67
2018-11-28T18:07:46.078Z,20.53
2018-11-28T18:10:16.817Z,24.87
2018-11-28T18:12:56.493Z,20.47
2018-11-28T18:15:26.792Z,22.40
2018-11-28T18:17:56.637Z,24.07
2018-11-28T18:20:25.109Z,23.20
2018-11-28T18:22:53.608Z,27.17
2018-11-28T18:25:22.719Z,22.33
2018-11-28T18:27:51.193Z,23.47
2018-11-28T18:30:20.401Z,24.63
2018-11-28T18:32:48.865Z,23.57
2018-11-28T18:35:17.688Z,23.60
2018-11-28T18:37:46.150Z,22.60
2018-11-28T18:40:14.629Z,26.97
2018-11-28T18:42:43.616Z,25.83
2018-11-28T18:45:14.401Z,22.60
2018-11-28T18:47:42.915Z,24.47
2018-11-28T18:50:12.129Z,26.50
2018-11-28T18:52:40.671Z,22.27
2018-11-28T18:55:16.371Z,24.07
2018-11-28T18:57:39.658Z,28.30
2018-11-28T19:00:13.744Z,27.60
2018-11-28T19:02:42.780Z,26.53
2018-11-28T19:05:11.092Z,25.37
2018-11-28T19:07:39.553Z,28.93
2018-11-28T19:10:12.493Z,26.80
2018-11-28T19:12:40.998Z,23.53
2018-11-28T19:15:11.825Z,24.10
2018-11-28T19:17:40.444Z,25.73
2018-11-28T19:20:11.565Z,26.60
2018-11-28T19:22:40.268Z,26.93
2018-11-28T19:25:10.904Z,29.27
2018-11-28T19:27:39.804Z,26.57
2018-11-28T19:30:12.147Z,27.93
2018-11-28T19:32:41.652Z,28.50
2018-11-28T19:35:11.156Z,29.27
2018-11-28T19:37:40.553Z,27.13
2018-11-28T19:40:12.821Z,27.70
2018-11-28T19:42:42.233Z,29.03
2018-11-28T19:45:10.761Z,32.43
2018-11-28T19:47:39.357Z,33.97
2018-11-28T19:50:13.461Z,26.33
2018-11-28T19:52:43.105Z,28.60
2018-11-28T19:55:11.611Z,27.33
2018-11-28T19:57:40.072Z,28.83
2018-11-28T20:00:16.351Z,26.17
2018-11-28T20:02:46.472Z,28.07
2018-11-28T20:05:15.033Z,28.03
2018-11-28T20:07:45.164Z,28.10
2018-11-28T20:10:15.198Z,28.00
2018-11-28T20:12:43.695Z,27.10
2018-11-28T20:15:30.499Z,27.60
2018-11-28T20:17:59.005Z,26.43
2018-11-28T20:20:27.501Z,28.23
2018-11-28T20:22:56.864Z,23.70
2018-11-28T20:25:26.198Z,25.97
2018-11-28T20:27:58.128Z,25.70
2018-11-28T20:30:29.244Z,25.77
2018-11-28T20:32:58.259Z,25.80
2018-11-28T20:35:26.758Z,21.43
2018-11-28T20:37:55.308Z,24.93
2018-11-28T20:40:24.027Z,27.93
2018-11-28T20:42:53.437Z,25.30
2018-11-28T20:45:21.926Z,25.63
2018-11-28T20:47:50.432Z,23.70
2018-11-28T20:50:34.476Z,25.33
2018-11-28T20:53:06.865Z,22.47
2018-11-28T20:55:35.380Z,22.13
2018-11-28T20:58:03.888Z,26.77
2018-11-28T21:00:32.384Z,21.37
2018-11-28T21:03:00.850Z,21.57
2018-11-28T21:05:29.472Z,20.93
2018-11-28T21:07:58.044Z,24.10
2018-11-28T21:10:31.631Z,22.53
2018-11-28T21:13:00.342Z,22.37
2018-11-28T21:15:28.656Z,19.63
2018-11-28T21:17:57.124Z,19.70
2018-11-28T21:20:25.664Z,20.80
2018-11-28T21:22:56.328Z,20.23
2018-11-28T21:25:24.924Z,21.57
2018-11-28T21:27:53.769Z,22.43
2018-11-28T21:30:22.549Z,22.37
2018-11-28T21:32:52.971Z,19.77
2018-11-28T21:35:26.700Z,18.33
2018-11-28T21:37:55.169Z,19.13
2018-11-28T21:40:23.776Z,19.30
2018-11-28T21:42:52.685Z,21.60
2018-11-28T21:45:22.136Z,19.43
2018-11-28T21:47:50.648Z,20.03
2018-11-28T21:50:19.640Z,18.70
2018-11-28T21:52:48.689Z,16.57
2018-11-28T21:55:20.119Z,17.60
2018-11-28T21:57:48.638Z,16.80
2018-11-28T22:00:22.380Z,16.93
2018-11-28T22:02:51.263Z,17.57
2018-11-28T22:05:19.747Z,16.67
2018-11-28T22:07:48.202Z,16.80
2018-11-28T22:10:21.381Z,14.97
2018-11-28T22:12:49.931Z,14.00
2018-11-28T22:15:18.957Z,15.07
2018-11-28T22:17:52.236Z,16.77
2018-11-28T22:20:20.764Z,13.60
2018-11-28T22:22:49.231Z,14.13
2018-11-28T22:25:25.497Z,13.07
2018-11-28T22:27:54.459Z,12.40
2018-11-28T22:30:27.740Z,15.37
2018-11-28T22:32:56.271Z,12.47
2018-11-28T22:35:24.761Z,14.33
2018-11-28T22:37:53.229Z,13.43
2018-11-28T22:40:22.776Z,11.83
2018-11-28T22:42:51.979Z,12.40
2018-11-28T22:45:24.424Z,13.03
2018-11-28T22:47:52.865Z,13.07
2018-11-28T22:50:21.321Z,11.33
2018-11-28T22:52:49.776Z,13.37
2018-11-28T22:55:18.720Z,13.93
2018-11-28T22:57:47.151Z,13.47
2018-11-28T23:00:16.781Z,14.27
2018-11-28T23:02:59.936Z,12.43
2018-11-28T23:05:32.472Z,12.80
2018-11-28T23:08:01.842Z,13.20
2018-11-28T23:10:30.576Z,12.83
2018-11-28T23:12:59.564Z,11.47
2018-11-28T23:15:28.008Z,11.33
2018-11-28T23:17:56.452Z,10.27
2018-11-28T23:20:25.267Z,11.17
2018-11-28T23:22:54.144Z,10.77
2018-11-28T23:25:22.548Z,11.47
2018-11-28T23:27:51.170Z,12.10
2018-11-28T23:30:20.906Z,10.80
2018-11-28T23:32:49.913Z,11.13
2018-11-28T23:35:18.604Z,11.57
2018-11-28T23:37:48.300Z,11.77
2018-11-28T23:40:21.391Z,10.73
2018-11-28T23:42:50.444Z,12.60
2018-11-28T23:45:19.329Z,11.47
2018-11-28T23:47:48.398Z,12.63
2018-11-28T23:50:25.932Z,13.20
2018-11-28T23:52:55.784Z,11.27
2018-11-28T23:55:27.452Z,13.53
2018-11-28T23:57:56.027Z,11.63
